Time;durP1;ratioP1;P1;durP2;ratioP2;P2;SDS_P1;SDS_P2;PMS_P1;PMS_P2;Temp;Humidity;BMP_temperature;BMP_pressure;BME280_temperature;BME280_humidity;BME280_pressure;Samples;Min_cycle;Max_cycle;Signal;HPM_P1;HPM_P2
2022/02/19 00:01:08;;;;;;;45.78;27.88;;;4.10;94.70;;;;;;5023030;28;20512;-71
2022/02/19 00:03:35;;;;;;;16.63;8.25;;;4.20;94.90;;;;;;5016594;28;20042;-71
2022/02/19 00:06:02;;;;;;;7.93;4.00;;;4.30;94.00;;;;;;5011721;28;20049;-69
2022/02/19 00:08:29;;;;;;;10.98;4.82;;;4.20;94.10;;;;;;5016530;28;20077;-68
2022/02/19 00:10:56;;;;;;;9.30;2.60;;;4.10;94.50;;;;;;5020584;28;20485;-68
2022/02/19 00:13:23;;;;;;;7.45;2.10;;;4.10;94.60;;;;;;5017214;28;20056;-68
2022/02/19 00:15:50;;;;;;;13.52;2.83;;;4.10;94.70;;;;;;5032855;28;20045;-67
2022/02/19 00:18:17;;;;;;;6.50;1.83;;;4.00;94.70;;;;;;5031632;28;20497;-79
2022/02/19 00:20:44;;;;;;;11.85;3.22;;;4.00;94.90;;;;;;5014562;28;20046;-69
2022/02/19 00:23:11;;;;;;;8.07;2.63;;;4.00;95.40;;;;;;5013365;28;20410;-68
2022/02/19 00:25:38;;;;;;;8.00;2.22;;;4.00;95.20;;;;;;5014575;28;20046;-68
2022/02/19 00:28:05;;;;;;;9.75;2.65;;;4.00;95.30;;;;;;4997756;28;20126;-68
2022/02/19 00:30:32;;;;;;;10.57;3.33;;;4.00;95.20;;;;;;5024459;28;20058;-68
2022/02/19 00:32:59;;;;;;;14.27;2.92;;;4.00;95.00;;;;;;4996018;28;20108;-68
2022/02/19 00:35:26;;;;;;;15.13;2.53;;;4.00;94.90;;;;;;5013163;28;20075;-69
2022/02/19 00:37:53;;;;;;;9.57;2.13;;;4.00;95.00;;;;;;5013323;28;20058;-68
2022/02/19 00:40:20;;;;;;;11.18;2.40;;;4.00;94.70;;;;;;5044405;28;20052;-67
2022/02/19 00:42:47;;;;;;;5.38;2.25;;;4.00;95.30;;;;;;5005900;28;20049;-67
2022/02/19 00:45:14;;;;;;;9.25;3.00;;;4.00;94.40;;;;;;5033017;28;20072;-67
2022/02/19 00:47:41;;;;;;;9.13;2.13;;;4.00;94.90;;;;;;5023231;28;20100;-68
2022/02/19 00:50:08;;;;;;;14.82;2.35;;;4.00;94.70;;;;;;5013869;28;20058;-67
2022/02/19 00:52:35;;;;;;;7.85;2.58;;;3.90;94.60;;;;;;5012619;28;20129;-68
2022/02/19 00:55:02;;;;;;;6.93;2.75;;;4.00;94.20;;;;;;5011591;28;20485;-67
2022/02/19 00:57:29;;;;;;;5.65;1.83;;;4.00;94.40;;;;;;5012884;28;20394;-68
2022/02/19 00:59:56;;;;;;;5.65;1.73;;;4.00;94.50;;;;;;5027953;28;20045;-68
2022/02/19 01:02:23;;;;;;;7.75;3.53;;;4.00;94.30;;;;;;4999115;28;20077;-67
2022/02/19 01:04:50;;;;;;;10.23;3.17;;;4.00;93.80;;;;;;4994991;28;20073;-68
2022/02/19 01:07:21;;;;;;;3.75;1.67;;;4.00;94.40;;;;;;5022269;28;20493;-68
2022/02/19 01:09:47;;;;;;;9.75;1.90;;;4.00;94.10;;;;;;5015960;28;20072;-68
2022/02/19 01:12:17;;;;;;;11.15;2.47;;;4.00;93.90;;;;;;5013781;28;20049;-74
2022/02/19 01:14:44;;;;;;;6.40;2.45;;;4.00;93.70;;;;;;5021831;28;20049;-72
2022/02/19 01:17:12;;;;;;;9.43;2.47;;;4.00;93.80;;;;;;5023902;28;20060;-77
2022/02/19 01:19:39;;;;;;;10.15;2.10;;;4.00;93.50;;;;;;5016917;28;20489;-74
2022/02/19 01:22:06;;;;;;;7.25;1.85;;;3.90;93.30;;;;;;5012648;28;20412;-69
2022/02/19 01:24:33;;;;;;;8.80;1.80;;;4.00;93.40;;;;;;5019232;28;20479;-77
2022/02/19 01:27:00;;;;;;;8.88;2.97;;;4.00;93.50;;;;;;5021751;28;20124;-76
2022/02/19 01:29:27;;;;;;;9.88;2.28;;;4.00;93.70;;;;;;5012530;28;20042;-68
2022/02/19 01:31:54;;;;;;;8.10;1.88;;;4.00;93.50;;;;;;5015282;28;20053;-74
2022/02/19 01:34:23;;;;;;;7.93;2.15;;;3.90;94.00;;;;;;5013982;28;20053;-68
2022/02/19 01:36:51;;;;;;;12.40;4.10;;;4.00;94.20;;;;;;5014754;28;20045;-73
2022/02/19 01:39:20;;;;;;;61.53;36.97;;;4.10;93.90;;;;;;4994400;28;20046;-68
2022/02/19 01:41:47;;;;;;;187.65;118.97;;;4.30;93.90;;;;;;5016379;28;20505;-70
2022/02/19 01:44:14;;;;;;;40.00;21.90;;;4.40;93.00;;;;;;5021478;28;20053;-78
2022/02/19 01:46:41;;;;;;;20.23;8.18;;;4.50;91.90;;;;;;5015460;28;20042;-68
2022/02/19 01:49:08;;;;;;;18.25;6.40;;;4.40;92.40;;;;;;5028877;28;20057;-71
2022/02/19 01:51:36;;;;;;;16.65;5.40;;;4.40;92.50;;;;;;5015548;28;20501;-71
2022/02/19 01:54:07;;;;;;;9.73;3.35;;;4.30;92.20;;;;;;5011688;28;20046;-69
2022/02/19 01:56:34;;;;;;;8.75;2.72;;;4.30;92.20;;;;;;5030266;28;20058;-79
2022/02/19 01:59:05;;;;;;;14.15;2.45;;;4.20;93.00;;;;;;5016102;28;20058;-76
2022/02/19 02:01:31;;;;;;;6.88;2.17;;;4.20;93.40;;;;;;5026768;28;20488;-74
2022/02/19 02:03:59;;;;;;;11.90;3.60;;;4.20;93.40;;;;;;5016337;28;20041;-70
2022/02/19 02:06:26;;;;;;;11.55;3.97;;;4.10;93.70;;;;;;5027018;28;20053;-69
2022/02/19 02:08:53;;;;;;;5.60;2.28;;;4.10;94.00;;;;;;5026723;28;20050;-72
2022/02/19 02:11:20;;;;;;;7.95;3.90;;;4.10;95.60;;;;;;5024833;28;20393;-70
2022/02/19 02:13:47;;;;;;;161.80;105.57;;;4.00;95.00;;;;;;5015802;28;20050;-66
2022/02/19 02:16:14;;;;;;;48.97;30.50;;;4.00;95.60;;;;;;5016070;28;20339;-68
2022/02/19 02:18:44;;;;;;;38.42;21.67;;;4.10;95.40;;;;;;5016478;28;20049;-68
2022/02/19 02:21:11;;;;;;;14.57;7.20;;;4.20;96.00;;;;;;4998336;28;20050;-74
2022/02/19 02:23:39;;;;;;;11.13;4.35;;;4.10;95.50;;;;;;5014555;28;20049;-70
2022/02/19 02:26:06;;;;;;;10.15;3.00;;;4.10;95.50;;;;;;5018820;28;20049;-72
2022/02/19 02:28:33;;;;;;;11.23;2.97;;;4.00;95.90;;;;;;4981000;28;20050;-72
2022/02/19 02:31:03;;;;;;;8.80;2.88;;;3.90;96.60;;;;;;5032000;28;20053;-72
2022/02/19 02:33:30;;;;;;;11.63;3.00;;;3.90;96.40;;;;;;5017895;28;20107;-72
2022/02/19 02:35:57;;;;;;;17.33;8.15;;;3.90;96.90;;;;;;5025551;28;20054;-74
2022/02/19 02:38:24;;;;;;;70.45;43.40;;;4.00;96.80;;;;;;5029624;28;20045;-74
2022/02/19 02:40:51;;;;;;;18.40;7.28;;;4.00;98.10;;;;;;4997699;28;20046;-75
2022/02/19 02:43:20;;;;;;;11.07;4.85;;;4.00;96.70;;;;;;5016326;28;20064;-70
2022/02/19 02:45:48;;;;;;;15.15;4.80;;;3.90;96.90;;;;;;4989142;28;20050;-72
2022/02/19 02:48:21;;;;;;;10.80;3.20;;;3.90;96.90;;;;;;5025294;28;20046;-71
2022/02/19 02:50:49;;;;;;;19.60;4.22;;;3.90;97.30;;;;;;5023707;28;20049;-75
2022/02/19 02:53:36;;;;;;;11.00;2.70;;;3.80;97.90;;;;;;5015560;28;20050;-72
2022/02/19 02:56:03;;;;;;;7.93;2.10;;;3.80;97.60;;;;;;5014333;28;20275;-72
2022/02/19 02:58:30;;;;;;;6.38;2.25;;;3.80;98.10;;;;;;4999142;28;20045;-72
2022/02/19 03:00:57;;;;;;;10.15;2.20;;;3.80;97.90;;;;;;5016547;28;20408;-72
2022/02/19 03:03:29;;;;;;;6.88;2.90;;;3.80;98.20;;;;;;5046170;28;20092;-71
2022/02/19 03:05:57;;;;;;;8.60;2.30;;;3.70;98.30;;;;;;5026199;28;20046;-71
2022/02/19 03:08:24;;;;;;;9.32;2.05;;;3.80;98.10;;;;;;5019029;28;20378;-71
2022/02/19 03:10:51;;;;;;;7.53;2.35;;;3.70;98.30;;;;;;5022098;28;20057;-71
2022/02/19 03:13:17;;;;;;;9.43;2.22;;;3.80;98.50;;;;;;5033082;28;20049;-72
2022/02/19 03:15:44;;;;;;;10.10;2.47;;;3.80;98.50;;;;;;5022124;28;20053;-71
2022/02/19 03:18:12;;;;;;;5.18;1.85;;;3.80;98.90;;;;;;5025064;28;20057;-71
2022/02/19 03:20:39;;;;;;;8.85;2.20;;;3.80;98.60;;;;;;5027701;28;20046;-71
2022/02/19 03:23:06;;;;;;;11.13;2.13;;;3.70;98.90;;;;;;5018954;28;20133;-72
2022/02/19 03:25:33;;;;;;;8.02;2.10;;;3.70;98.80;;;;;;5028953;28;20057;-71
2022/02/19 03:28:01;;;;;;;7.15;2.17;;;3.70;98.90;;;;;;5014636;28;20045;-71
2022/02/19 03:30:28;;;;;;;9.65;3.22;;;3.70;99.20;;;;;;4997889;28;20417;-71
2022/02/19 03:32:55;;;;;;;5.82;1.98;;;3.70;99.80;;;;;;4999519;28;20141;-71
2022/02/19 03:35:22;;;;;;;4.43;1.50;;;3.70;99.90;;;;;;5016555;28;20413;-71
2022/02/19 03:37:50;;;;;;;10.13;2.63;;;3.70;99.90;;;;;;5022803;28;20046;-72
2022/02/19 03:40:17;;;;;;;4.97;2.20;;;3.70;99.90;;;;;;5034950;28;20041;-74
2022/02/19 03:42:44;;;;;;;7.20;2.03;;;3.70;99.90;;;;;;5019057;28;20046;-73
2022/02/19 03:45:12;;;;;;;3.92;1.67;;;3.60;99.90;;;;;;5017085;28;20512;-73
2022/02/19 03:47:43;;;;;;;6.25;1.50;;;3.60;99.90;;;;;;5016533;28;20048;-71
2022/02/19 03:50:13;;;;;;;8.85;1.80;;;3.60;99.90;;;;;;5022869;28;20076;-72
2022/02/19 03:52:40;;;;;;;10.38;4.03;;;3.60;99.90;;;;;;5027849;28;20493;-72
2022/02/19 03:55:07;;;;;;;8.20;2.60;;;3.60;99.90;;;;;;5032333;28;20120;-72
2022/02/19 03:57:34;;;;;;;129.48;73.28;;;3.60;99.90;;;;;;5020496;28;20052;-70
2022/02/19 04:00:03;;;;;;;49.35;20.48;;;3.70;99.90;;;;;;5020928;28;20054;-71
2022/02/19 04:02:31;;;;;;;12.68;5.35;;;3.70;99.90;;;;;;5023761;28;20081;-71
2022/02/19 04:04:58;;;;;;;11.00;4.05;;;3.70;99.90;;;;;;5012510;28;20054;-71
2022/02/19 04:07:25;;;;;;;9.23;2.78;;;3.60;99.90;;;;;;5005613;28;20814;-75
2022/02/19 04:09:52;;;;;;;5.55;1.52;;;3.60;99.90;;;;;;5023010;28;20057;-76
2022/02/19 04:12:19;;;;;;;8.82;3.00;;;3.60;99.90;;;;;;5022601;28;20437;-72
2022/02/19 04:14:45;;;;;;;8.93;3.20;;;3.60;99.90;;;;;;5013588;28;20079;-72
2022/02/19 04:17:13;;;;;;;5.97;1.55;;;3.50;99.90;;;;;;5029833;28;20046;-71
2022/02/19 04:19:40;;;;;;;5.78;2.03;;;3.50;99.90;;;;;;5019389;28;20401;-70
2022/02/19 04:22:07;;;;;;;10.30;2.35;;;3.50;99.90;;;;;;5010990;28;20512;-71
2022/02/19 04:24:34;;;;;;;9.85;1.90;;;3.50;99.90;;;;;;5016885;28;20061;-71
2022/02/19 04:27:01;;;;;;;7.82;1.83;;;3.50;99.90;;;;;;5024880;28;20512;-72
2022/02/19 04:29:27;;;;;;;10.63;2.17;;;3.50;99.90;;;;;;5018483;28;20500;-71
2022/02/19 04:31:55;;;;;;;5.68;1.80;;;3.50;99.90;;;;;;5024419;28;20057;-72
2022/02/19 04:34:22;;;;;;;9.45;2.85;;;3.50;99.90;;;;;;5019277;28;20045;-71
2022/02/19 04:36:49;;;;;;;5.63;1.90;;;3.40;99.90;;;;;;5021221;28;20073;-73
2022/02/19 04:39:17;;;;;;;8.27;1.88;;;3.40;99.90;;;;;;5030337;28;20042;-71
2022/02/19 04:41:47;;;;;;;5.55;1.90;;;3.40;99.90;;;;;;5025237;28;20046;-71
2022/02/19 04:44:14;;;;;;;5.53;1.90;;;3.40;99.90;;;;;;5008421;28;20045;-71
2022/02/19 04:46:41;;;;;;;8.73;2.83;;;3.40;99.90;;;;;;5001496;28;20049;-71
2022/02/19 04:49:09;;;;;;;11.23;1.98;;;3.30;99.90;;;;;;5026493;28;20100;-72
2022/02/19 04:51:36;;;;;;;7.20;3.03;;;3.40;99.90;;;;;;5019450;28;20045;-72
2022/02/19 04:54:03;;;;;;;5.40;1.90;;;3.40;99.90;;;;;;5016901;28;20053;-73
2022/02/19 04:56:32;;;;;;;6.32;1.80;;;3.40;99.90;;;;;;5024168;28;20089;-71
2022/02/19 04:59:03;;;;;;;8.02;2.67;;;3.40;99.90;;;;;;5017189;28;20057;-71
2022/02/19 05:01:30;;;;;;;7.88;1.70;;;3.40;99.90;;;;;;5009512;28;20048;-71
2022/02/19 05:03:57;;;;;;;9.07;1.95;;;3.40;99.90;;;;;;5023097;28;20113;-72
2022/02/19 05:06:24;;;;;;;9.63;2.00;;;3.40;99.90;;;;;;5012920;28;20056;-71
2022/02/19 05:08:51;;;;;;;11.25;2.67;;;3.40;99.90;;;;;;5020327;28;20054;-71
2022/02/19 05:11:18;;;;;;;8.75;2.97;;;3.40;99.90;;;;;;5005541;28;20061;-71
2022/02/19 05:13:45;;;;;;;7.85;1.83;;;3.30;99.90;;;;;;5023564;28;20394;-74
2022/02/19 05:16:12;;;;;;;10.38;2.92;;;3.30;99.90;;;;;;5025413;28;20053;-71
2022/02/19 05:18:39;;;;;;;7.75;2.05;;;3.30;99.90;;;;;;5026022;28;20775;-72
2022/02/19 05:21:07;;;;;;;4.90;2.17;;;3.30;99.90;;;;;;5024409;28;20049;-72
2022/02/19 05:23:35;;;;;;;9.40;1.80;;;3.30;99.90;;;;;;5020166;28;20049;-71
2022/02/19 05:26:02;;;;;;;4.75;2.17;;;3.20;99.90;;;;;;5016248;28;20060;-71
2022/02/19 05:28:29;;;;;;;5.93;2.00;;;3.20;99.90;;;;;;4994878;28;20053;-73
2022/02/19 05:30:56;;;;;;;6.43;2.00;;;3.20;99.90;;;;;;5013365;28;20050;-71
2022/02/19 05:33:23;;;;;;;9.48;2.00;;;3.20;99.90;;;;;;5013313;28;20042;-71
2022/02/19 05:35:50;;;;;;;5.85;1.65;;;3.10;99.90;;;;;;5018721;28;20556;-71
2022/02/19 05:38:17;;;;;;;12.70;1.88;;;3.20;99.90;;;;;;5023764;28;20401;-73
2022/02/19 05:40:44;;;;;;;9.30;2.55;;;3.10;99.90;;;;;;5025861;28;20053;-76
2022/02/19 05:43:12;;;;;;;4.00;1.60;;;3.10;99.90;;;;;;5015395;28;20042;-71
2022/02/19 05:45:41;;;;;;;8.25;1.70;;;3.20;99.90;;;;;;5014518;28;20128;-71
2022/02/19 05:48:08;;;;;;;6.95;1.67;;;3.20;99.90;;;;;;5015445;28;20042;-72
2022/02/19 05:50:35;;;;;;;7.07;2.78;;;3.10;99.90;;;;;;5028455;28;20056;-71
2022/02/19 05:53:04;;;;;;;7.07;2.17;;;3.10;99.90;;;;;;5017620;28;20049;-72
2022/02/19 05:55:32;;;;;;;7.43;2.17;;;3.10;99.90;;;;;;5019603;28;20052;-72
2022/02/19 05:57:59;;;;;;;8.98;2.25;;;3.10;99.90;;;;;;5028636;28;20049;-71
2022/02/19 06:00:26;;;;;;;9.68;1.92;;;3.10;99.90;;;;;;5014621;28;20108;-71
2022/02/19 06:02:52;;;;;;;9.75;2.80;;;3.10;99.90;;;;;;5019632;28;20120;-71
2022/02/19 06:05:19;;;;;;;6.68;2.03;;;3.10;99.90;;;;;;5027778;28;20112;-72
2022/02/19 06:07:46;;;;;;;4.88;1.70;;;3.10;99.90;;;;;;5019139;28;20155;-71
2022/02/19 06:10:14;;;;;;;6.22;2.45;;;3.10;99.90;;;;;;5012881;28;20065;-76
2022/02/19 06:12:41;;;;;;;9.27;1.88;;;3.10;99.90;;;;;;5028327;28;20065;-71
2022/02/19 06:15:08;;;;;;;11.38;2.88;;;3.10;99.90;;;;;;5031485;28;20045;-72
2022/02/19 06:17:35;;;;;;;6.45;1.63;;;3.10;99.90;;;;;;5019320;28;20045;-71
2022/02/19 06:20:03;;;;;;;6.72;2.30;;;3.10;99.90;;;;;;5029404;28;20049;-71
2022/02/19 06:22:30;;;;;;;9.82;2.22;;;3.10;99.90;;;;;;5018731;28;20382;-71
2022/02/19 06:24:57;;;;;;;9.98;2.25;;;3.10;99.90;;;;;;4994648;28;20096;-71
2022/02/19 06:27:24;;;;;;;14.20;2.88;;;3.10;99.90;;;;;;5012682;28;20060;-75
2022/02/19 06:29:51;;;;;;;6.53;1.70;;;3.10;99.90;;;;;;5010914;28;20050;-71
2022/02/19 06:32:18;;;;;;;7.32;2.13;;;3.10;99.90;;;;;;5012102;28;20042;-71
2022/02/19 06:34:44;;;;;;;8.65;1.92;;;3.10;99.90;;;;;;5010214;28;20398;-72
2022/02/19 06:37:12;;;;;;;6.18;1.80;;;3.10;99.90;;;;;;4992492;28;20061;-72
2022/02/19 06:39:39;;;;;;;11.20;2.63;;;3.10;99.90;;;;;;5001240;28;20128;-71
2022/02/19 06:42:06;;;;;;;6.10;1.95;;;3.10;99.90;;;;;;5016686;28;20042;-71
2022/02/19 06:44:33;;;;;;;8.02;2.10;;;3.10;99.90;;;;;;5010476;28;20548;-71
2022/02/19 06:47:06;;;;;;;8.85;1.92;;;3.00;99.90;;;;;;5013136;28;20046;-71
2022/02/19 06:49:33;;;;;;;7.20;1.95;;;3.00;99.90;;;;;;5015109;28;20041;-73
2022/02/19 06:52:02;;;;;;;5.15;1.65;;;3.00;99.90;;;;;;5017041;28;20489;-71
2022/02/19 06:54:29;;;;;;;5.25;1.67;;;3.00;99.90;;;;;;5026177;28;20041;-72
2022/02/19 06:56:58;;;;;;;5.65;2.22;;;3.00;99.90;;;;;;5030568;28;20050;-71
2022/02/19 06:59:25;;;;;;;9.48;2.00;;;3.00;99.90;;;;;;5047224;28;20417;-71
2022/02/19 07:01:53;;;;;;;5.78;1.77;;;2.90;99.90;;;;;;5011482;28;20052;-72
2022/02/19 07:04:19;;;;;;;12.30;2.40;;;2.90;99.90;;;;;;4994593;28;20054;-72
2022/02/19 07:06:46;;;;;;;9.10;1.80;;;2.90;99.90;;;;;;5010213;28;20046;-71
2022/02/19 07:09:13;;;;;;;5.32;1.98;;;2.90;99.90;;;;;;5013936;28;20076;-72
2022/02/19 07:11:40;;;;;;;6.95;2.03;;;2.90;99.90;;;;;;5029740;28;20049;-71
2022/02/19 07:14:07;;;;;;;7.15;2.22;;;2.80;99.90;;;;;;5014457;28;20060;-71
2022/02/19 07:16:34;;;;;;;3.70;1.80;;;2.90;99.90;;;;;;5014030;28;20142;-71
2022/02/19 07:19:01;;;;;;;6.88;1.80;;;2.90;99.90;;;;;;5013895;28;20046;-71
2022/02/19 07:21:28;;;;;;;7.60;2.55;;;2.90;99.90;;;;;;5014576;28;20053;-72
2022/02/19 07:23:55;;;;;;;7.00;2.17;;;2.90;99.90;;;;;;5013679;28;20050;-71
2022/02/19 07:26:23;;;;;;;10.23;3.72;;;2.90;99.90;;;;;;4997088;28;20061;-71
2022/02/19 07:28:50;;;;;;;6.85;1.92;;;2.90;99.90;;;;;;5014428;28;20046;-71
2022/02/19 07:31:17;;;;;;;4.93;1.75;;;2.90;99.90;;;;;;5013706;28;20055;-71
2022/02/19 07:33:44;;;;;;;10.43;3.03;;;3.00;99.90;;;;;;4992103;28;20077;-72
2022/02/19 07:36:11;;;;;;;7.18;2.15;;;3.00;99.90;;;;;;5020461;28;20046;-72
2022/02/19 07:38:38;;;;;;;10.73;2.10;;;3.00;99.90;;;;;;5016597;28;20045;-71
2022/02/19 07:41:05;;;;;;;6.65;1.77;;;3.00;99.90;;;;;;5027220;28;20057;-72
2022/02/19 07:43:32;;;;;;;4.88;1.63;;;3.00;99.90;;;;;;5014609;28;20046;-72
2022/02/19 07:46:01;;;;;;;5.80;1.85;;;3.10;99.90;;;;;;5013943;28;20512;-71
2022/02/19 07:48:28;;;;;;;7.85;1.70;;;3.10;99.90;;;;;;5045731;28;20046;-71
2022/02/19 07:59:31;;;;;;;14.50;2.78;;;3.20;99.90;;;;;;5011114;28;20042;-71
2022/02/19 08:01:58;;;;;;;4.28;2.22;;;3.20;99.90;;;;;;5012066;28;20054;-71
2022/02/19 08:04:25;;;;;;;8.90;2.20;;;3.20;99.90;;;;;;5050451;28;20056;-71
2022/02/19 08:06:55;;;;;;;7.38;1.92;;;3.20;99.90;;;;;;5022118;28;20053;-72
2022/02/19 08:09:22;;;;;;;9.05;1.65;;;3.30;99.90;;;;;;5032472;28;20061;-72
2022/02/19 08:11:49;;;;;;;9.90;2.80;;;3.30;99.90;;;;;;5025056;28;20045;-71
2022/02/19 08:14:16;;;;;;;5.80;1.98;;;3.30;99.90;;;;;;5045435;28;20054;-71
2022/02/19 08:16:43;;;;;;;9.05;2.38;;;3.30;99.90;;;;;;5013811;28;20057;-73
2022/02/19 08:19:10;;;;;;;6.22;1.98;;;3.40;99.90;;;;;;5013915;28;20045;-71
2022/02/19 08:21:40;;;;;;;7.03;2.75;;;3.40;99.90;;;;;;5035629;28;20045;-73
2022/02/19 08:24:07;;;;;;;8.40;1.75;;;3.40;99.90;;;;;;5007616;28;20047;-72
2022/02/19 08:26:34;;;;;;;7.00;2.22;;;3.40;99.90;;;;;;5020100;28;20049;-72
2022/02/19 08:29:01;;;;;;;6.68;1.83;;;3.50;99.90;;;;;;5009495;28;20500;-72
2022/02/19 08:31:30;;;;;;;11.65;2.85;;;3.50;99.90;;;;;;5008140;28;20121;-72
2022/02/19 08:33:57;;;;;;;7.28;2.50;;;3.60;99.90;;;;;;5019224;28;20062;-71
2022/02/19 08:36:24;;;;;;;6.82;2.42;;;3.60;99.90;;;;;;4994552;28;20068;-72
2022/02/19 08:38:51;;;;;;;10.77;2.25;;;3.70;99.90;;;;;;5012911;28;20062;-72
2022/02/19 08:41:18;;;;;;;7.25;2.30;;;3.70;99.90;;;;;;5040469;28;20103;-71
2022/02/19 08:43:48;;;;;;;8.50;1.98;;;3.80;99.90;;;;;;5007913;28;20050;-72
2022/02/19 08:46:15;;;;;;;9.32;2.28;;;3.80;99.90;;;;;;4993655;28;20498;-71
2022/02/19 08:48:42;;;;;;;8.70;2.40;;;3.90;99.90;;;;;;5013577;28;20053;-71
2022/02/19 08:51:12;;;;;;;5.60;2.28;;;3.90;99.90;;;;;;5035669;28;20049;-73
2022/02/19 08:53:41;;;;;;;8.20;2.08;;;4.00;99.90;;;;;;4996331;28;20046;-71
2022/02/19 08:56:08;;;;;;;9.43;2.08;;;4.10;99.90;;;;;;5008742;28;20497;-71
2022/02/19 08:58:37;;;;;;;12.07;3.15;;;4.10;99.90;;;;;;5009860;28;20192;-72
2022/02/19 09:01:04;;;;;;;5.57;2.10;;;4.30;99.90;;;;;;5020037;28;20053;-71
2022/02/19 09:03:31;;;;;;;13.77;4.88;;;4.40;99.90;;;;;;5015088;28;20076;-72
2022/02/19 09:05:58;;;;;;;41.63;28.25;;;4.50;99.90;;;;;;5015020;28;20072;-71
2022/02/19 09:08:25;;;;;;;16.02;8.60;;;4.60;99.90;;;;;;5013171;28;20049;-72
2022/02/19 09:10:52;;;;;;;17.95;5.55;;;4.70;99.90;;;;;;5008848;28;20481;-71
2022/02/19 09:13:19;;;;;;;10.57;3.45;;;4.80;99.90;;;;;;5017910;28;20052;-72
2022/02/19 09:15:49;;;;;;;5.93;2.80;;;5.00;99.90;;;;;;5004727;28;20139;-72
2022/02/19 09:18:16;;;;;;;11.15;3.10;;;5.20;99.90;;;;;;5027429;28;20054;-71
2022/02/19 09:20:43;;;;;;;7.28;2.10;;;5.30;99.90;;;;;;5038186;28;20401;-71
2022/02/19 09:23:10;;;;;;;4.85;2.25;;;5.50;99.30;;;;;;5010365;28;20056;-71
2022/02/19 09:25:37;;;;;;;7.60;2.47;;;5.60;98.30;;;;;;5011203;28;20107;-70
2022/02/19 09:28:04;;;;;;;7.95;1.90;;;5.70;98.60;;;;;;5038098;28;20405;-71
2022/02/19 09:30:31;;;;;;;8.73;3.17;;;5.80;97.30;;;;;;5008386;28;20045;-71
2022/02/19 09:33:00;;;;;;;7.47;2.17;;;6.00;97.60;;;;;;5009033;28;20056;-75
2022/02/19 09:35:27;;;;;;;11.90;3.30;;;6.00;97.20;;;;;;5001193;28;20057;-72
2022/02/19 09:37:54;;;;;;;9.05;2.25;;;6.10;96.80;;;;;;4991633;28;20046;-72
2022/02/19 09:40:21;;;;;;;5.82;2.30;;;6.20;96.50;;;;;;5014955;28;20148;-71
2022/02/19 09:42:51;;;;;;;12.48;2.60;;;6.20;96.50;;;;;;5035090;28;20042;-71
2022/02/19 09:45:18;;;;;;;13.68;2.60;;;6.30;96.90;;;;;;5012224;28;20418;-71
2022/02/19 09:47:45;;;;;;;11.82;2.33;;;6.40;96.20;;;;;;5016222;28;20065;-64
2022/02/19 09:50:13;;;;;;;34.22;21.20;;;6.40;96.40;;;;;;5029105;28;20473;-65
2022/02/19 09:52:39;;;;;;;13.18;4.80;;;6.50;96.40;;;;;;5032161;28;20061;-66
2022/02/19 09:55:07;;;;;;;15.20;6.50;;;6.60;96.50;;;;;;5032250;28;20057;-64
2022/02/19 09:57:34;;;;;;;11.05;4.68;;;6.70;95.90;;;;;;5001398;28;20050;-72
2022/02/19 10:00:01;;;;;;;16.80;4.90;;;6.70;95.50;;;;;;5015453;28;20045;-72
2022/02/19 10:02:34;;;;;;;9.63;2.83;;;6.80;95.60;;;;;;5013655;28;20051;-74
2022/02/19 10:05:24;;;;;;;8.10;2.20;;;6.80;96.00;;;;;;5001122;28;20049;-72
2022/02/19 10:08:02;;;;;;;5.20;1.95;;;6.90;95.20;;;;;;5002842;28;20110;-77
2022/02/19 10:10:29;;;;;;;6.50;1.92;;;6.90;95.80;;;;;;5007819;28;20072;-70
2022/02/19 10:12:58;;;;;;;8.27;2.50;;;7.00;95.60;;;;;;4981708;28;20050;-73
2022/02/19 10:15:46;;;;;;;12.45;6.88;;;7.10;95.90;;;;;;5022263;28;20449;-76
2022/02/19 10:18:30;;;;;;;46.90;26.95;;;7.20;95.00;;;;;;5033041;28;20409;-75
2022/02/19 10:21:20;;;;;;;33.03;14.80;;;7.30;95.30;;;;;;5011394;28;20054;-74
2022/02/19 10:23:49;;;;;;;9.85;3.28;;;7.30;95.00;;;;;;5013581;28;20053;-77
2022/02/19 10:26:17;;;;;;;10.25;3.58;;;7.40;94.90;;;;;;5030137;28;20536;-79
2022/02/19 10:29:01;;;;;;;11.43;2.70;;;7.40;95.10;;;;;;5006029;28;20056;-77
2022/02/19 10:31:28;;;;;;;8.50;2.22;;;7.50;94.80;;;;;;5017782;28;20096;-76
2022/02/19 10:34:13;;;;;;;7.45;2.50;;;7.50;95.00;;;;;;5014388;28;20448;-60
2022/02/19 10:37:00;;;;;;;15.45;4.75;;;7.60;94.80;;;;;;5015053;28;20393;-79
2022/02/19 10:39:31;;;;;;;11.38;4.32;;;7.70;95.00;;;;;;5014602;28;20065;-72
2022/02/19 10:42:08;;;;;;;13.25;4.68;;;7.70;94.90;;;;;;5014832;28;20508;-73
2022/02/19 10:44:35;;;;;;;63.28;32.63;;;7.70;94.80;;;;;;5013551;28;20042;-71
2022/02/19 10:47:20;;;;;;;11.30;4.95;;;7.80;95.30;;;;;;5014869;28;20046;-72
2022/02/19 10:50:11;;;;;;;8.65;3.20;;;7.80;95.00;;;;;;5037569;28;20053;-75
2022/02/19 10:53:05;;;;;;;8.98;2.28;;;7.80;95.10;;;;;;5014092;28;20045;-73
2022/02/19 10:55:31;;;;;;;13.02;3.92;;;7.80;94.50;;;;;;5037017;28;20408;-72
2022/02/19 10:58:02;;;;;;;14.05;3.30;;;7.90;94.90;;;;;;5013240;28;20041;-76
2022/02/19 11:00:35;;;;;;;17.02;4.63;;;7.90;95.20;;;;;;5008289;28;20140;-75
2022/02/19 11:03:09;;;;;;;12.70;3.30;;;7.90;95.60;;;;;;5032299;28;20057;-71
2022/02/19 11:05:37;;;;;;;11.52;3.28;;;7.90;95.60;;;;;;5025211;28;20439;-73
2022/02/19 11:08:04;;;;;;;12.13;4.22;;;7.90;95.10;;;;;;5011626;28;20057;-70
2022/02/19 11:10:33;;;;;;;76.57;53.30;;;7.90;95.60;;;;;;5010069;28;20379;-75
2022/02/19 11:13:01;;;;;;;28.35;13.10;;;7.90;95.80;;;;;;4996787;28;20117;-76
2022/02/19 11:15:28;;;;;;;11.50;5.57;;;7.90;95.70;;;;;;5008019;28;20053;-75
2022/02/19 11:17:56;;;;;;;10.90;4.88;;;7.80;96.70;;;;;;4996831;28;20076;-73
2022/02/19 11:20:24;;;;;;;24.88;5.03;;;7.90;95.90;;;;;;5006686;28;20046;-71
2022/02/19 11:22:54;;;;;;;11.93;3.23;;;7.80;96.00;;;;;;5014976;28;20133;-71
2022/02/19 11:25:21;;;;;;;9.18;3.05;;;7.90;96.10;;;;;;4998617;28;20295;-65
2022/02/19 11:28:08;;;;;;;10.00;3.10;;;7.90;96.00;;;;;;5012872;28;20050;-63
2022/02/19 11:30:45;;;;;;;12.07;3.03;;;7.90;95.70;;;;;;5013148;28;20384;-64
2022/02/19 11:33:14;;;;;;;9.05;3.60;;;7.90;95.00;;;;;;5032967;28;20046;-62
2022/02/19 11:35:42;;;;;;;13.23;3.53;;;7.90;95.20;;;;;;5010743;28;20046;-67
2022/02/19 11:38:30;;;;;;;12.48;3.83;;;7.90;95.20;;;;;;5028528;28;20072;-68
2022/02/19 11:40:59;;;;;;;12.15;2.95;;;8.00;94.30;;;;;;5024756;28;20081;-65
2022/02/19 11:43:39;;;;;;;13.48;3.70;;;8.00;94.80;;;;;;5017437;28;20565;-65
2022/02/19 11:46:14;;;;;;;149.48;107.03;;;8.00;94.50;;;;;;5011396;28;20053;-65
2022/02/19 11:48:42;;;;;;;17.38;8.52;;;8.00;96.00;;;;;;5013410;28;20053;-63
2022/02/19 11:51:23;;;;;;;15.20;4.82;;;8.00;96.30;;;;;;5010472;28;20505;-64
2022/02/19 11:54:11;;;;;;;15.88;4.00;;;7.90;96.30;;;;;;5012616;28;20056;-65
2022/02/19 11:56:41;;;;;;;11.00;3.83;;;7.90;97.30;;;;;;5021839;28;20046;-62
2022/02/19 11:59:13;;;;;;;13.50;2.65;;;7.80;98.00;;;;;;5032522;28;20060;-65
2022/02/19 12:01:40;;;;;;;11.77;4.88;;;7.70;98.30;;;;;;5031811;28;20052;-62
2022/02/19 12:04:10;;;;;;;52.00;23.92;;;7.80;98.40;;;;;;5028546;28;20046;-64
2022/02/19 12:06:38;;;;;;;17.23;5.20;;;7.70;98.20;;;;;;5013330;28;20054;-64
2022/02/19 12:09:10;;;;;;;11.48;3.38;;;7.80;99.00;;;;;;4992792;28;20054;-63
2022/02/19 12:11:49;;;;;;;13.32;3.90;;;7.70;99.90;;;;;;4986364;28;20058;-63
2022/02/19 12:14:41;;;;;;;10.88;4.15;;;7.70;99.90;;;;;;4997067;28;20082;-64
2022/02/19 12:17:08;;;;;;;9.18;3.45;;;7.60;99.90;;;;;;5026541;28;20480;-65
2022/02/19 12:19:55;;;;;;;15.48;4.18;;;7.50;99.90;;;;;;5018208;28;20049;-66
2022/02/19 12:22:49;;;;;;;14.00;5.57;;;7.30;99.90;;;;;;5023082;28;20448;-65
2022/02/19 12:25:17;;;;;;;20.42;7.30;;;7.20;99.90;;;;;;5031238;28;20504;-60
2022/02/19 12:28:05;;;;;;;13.07;6.57;;;7.30;99.90;;;;;;5023385;28;20061;-61
2022/02/19 12:30:32;;;;;;;19.50;6.68;;;7.20;99.90;;;;;;5012168;28;20081;-64
2022/02/19 12:32:59;;;;;;;19.13;4.95;;;7.00;99.90;;;;;;5006736;28;20042;-64
2022/02/19 12:35:44;;;;;;;16.40;5.05;;;6.90;99.90;;;;;;5013432;28;20049;-65
2022/02/19 12:38:14;;;;;;;13.52;3.10;;;6.80;99.90;;;;;;4997517;28;20456;-64
2022/02/19 12:40:41;;;;;;;17.60;4.80;;;6.70;99.90;;;;;;4997195;28;20162;-64
2022/02/19 12:43:17;;;;;;;13.53;3.23;;;6.70;99.90;;;;;;5012942;28;20049;-63
2022/02/19 12:45:44;;;;;;;12.65;3.38;;;6.70;99.90;;;;;;5012991;28;20119;-63
2022/02/19 12:48:11;;;;;;;15.13;3.47;;;6.70;99.90;;;;;;5026263;28;20053;-63
2022/02/19 12:50:39;;;;;;;11.02;3.40;;;6.70;99.90;;;;;;5011626;28;20041;-64
2022/02/19 12:53:06;;;;;;;10.35;3.55;;;6.70;99.90;;;;;;4980425;28;20385;-64
2022/02/19 12:55:33;;;;;;;14.18;3.63;;;6.70;99.90;;;;;;5022892;28;20050;-65
2022/02/19 12:58:02;;;;;;;24.15;5.93;;;6.70;99.90;;;;;;5043671;28;20428;-68
2022/02/19 13:00:30;;;;;;;15.23;4.38;;;6.70;99.90;;;;;;4997379;28;20053;-64
2022/02/19 13:03:00;;;;;;;10.65;2.53;;;6.70;99.90;;;;;;5017821;28;20127;-65
2022/02/19 13:05:28;;;;;;;9.18;3.97;;;6.70;99.90;;;;;;5012309;28;20111;-66
2022/02/19 13:07:55;;;;;;;10.05;2.95;;;6.70;99.90;;;;;;5011356;28;20088;-64